createdAt,value
2022-11-21T00:02:06.133Z,6.30
2022-11-21T00:04:54.010Z,6.10
2022-11-21T00:07:42.027Z,7.40
2022-11-21T00:10:29.321Z,6.00
2022-11-21T00:13:18.022Z,5.90
2022-11-21T00:16:06.030Z,5.80
2022-11-21T00:18:55.638Z,5.80
2022-11-21T00:21:43.246Z,5.80
2022-11-21T00:24:30.592Z,5.80
2022-11-21T00:27:18.184Z,5.80
2022-11-21T00:30:07.152Z,5.70
2022-11-21T00:32:55.124Z,5.70
2022-11-21T00:35:44.236Z,5.70
2022-11-21T00:38:32.052Z,5.70
2022-11-21T00:41:19.510Z,5.90
2022-11-21T00:44:07.252Z,5.60
2022-11-21T00:46:54.514Z,5.70
2022-11-21T00:49:44.334Z,5.50
2022-11-21T00:52:33.863Z,5.60
2022-11-21T00:55:24.424Z,5.60
2022-11-21T00:58:12.407Z,5.60
2022-11-21T01:01:09.030Z,5.50
2022-11-21T01:03:57.712Z,5.60
2022-11-21T01:06:46.137Z,5.10
2022-11-21T01:09:34.821Z,5.80
2022-11-21T01:12:22.768Z,5.70
2022-11-21T01:15:11.261Z,5.60
2022-11-21T01:17:59.430Z,5.70
2022-11-21T01:20:49.339Z,5.60
2022-11-21T01:23:37.005Z,5.60
2022-11-21T01:26:28.198Z,5.50
2022-11-21T01:29:16.475Z,5.50
2022-11-21T01:32:03.944Z,5.50
2022-11-21T01:34:51.356Z,5.50
2022-11-21T01:37:38.967Z,5.50
2022-11-21T01:40:27.135Z,5.40
2022-11-21T01:43:17.160Z,5.50
2022-11-21T01:46:06.476Z,5.50
2022-11-21T01:48:56.532Z,5.40
2022-11-21T01:51:46.065Z,5.40
2022-11-21T01:54:35.576Z,5.40
2022-11-21T01:57:24.076Z,5.40
2022-11-21T02:00:14.349Z,5.40
2022-11-21T02:03:07.287Z,5.40
2022-11-21T02:05:56.126Z,5.40
2022-11-21T02:08:46.255Z,5.40
2022-11-21T02:11:36.528Z,5.50
2022-11-21T02:14:26.687Z,5.50
2022-11-21T02:17:21.244Z,5.50
2022-11-21T02:20:10.639Z,5.50
2022-11-21T02:23:02.197Z,5.50
2022-11-21T02:25:51.984Z,5.50
2022-11-21T02:28:39.551Z,5.40
2022-11-21T02:31:27.136Z,5.50
2022-11-21T02:34:14.520Z,5.60
2022-11-21T02:37:03.220Z,5.60
2022-11-21T02:39:50.893Z,5.60
2022-11-21T02:42:46.854Z,5.70
2022-11-21T02:45:39.461Z,5.70
2022-11-21T02:48:26.686Z,5.80
2022-11-21T02:51:14.339Z,5.80
2022-11-21T02:54:01.447Z,5.00
2022-11-21T02:56:52.631Z,5.80
2022-11-21T02:59:42.221Z,6.10
2022-11-21T03:02:30.471Z,5.90
2022-11-21T03:05:20.435Z,5.90
2022-11-21T03:08:08.153Z,5.90
2022-11-21T03:10:56.437Z,5.90
2022-11-21T03:13:44.646Z,6.00
2022-11-21T03:16:33.938Z,6.90
2022-11-21T03:19:22.056Z,6.10
2022-11-21T03:22:09.483Z,6.00
2022-11-21T03:24:56.808Z,5.90
2022-11-21T03:27:45.185Z,5.90
2022-11-21T03:30:32.990Z,5.80
2022-11-21T03:33:21.903Z,5.90
2022-11-21T03:36:10.218Z,5.80
2022-11-21T03:39:00.636Z,5.90
2022-11-21T03:41:49.525Z,5.90
2022-11-21T03:44:37.466Z,5.90
2022-11-21T03:47:27.490Z,5.80
2022-11-21T03:50:19.142Z,5.80
2022-11-21T03:53:09.503Z,5.90
2022-11-21T03:56:00.271Z,5.80
2022-11-21T03:58:48.079Z,5.80
2022-11-21T04:01:37.073Z,5.80
2022-11-21T04:04:25.254Z,5.70
2022-11-21T04:07:18.396Z,5.70
2022-11-21T04:10:06.451Z,5.70
2022-11-21T04:12:54.009Z,5.60
2022-11-21T04:15:42.483Z,5.60
2022-11-21T04:18:30.029Z,5.60
2022-11-21T04:21:17.967Z,5.50
2022-11-21T04:24:09.777Z,5.50
2022-11-21T04:27:01.018Z,5.40
2022-11-21T04:29:48.196Z,6.40
2022-11-21T04:32:35.585Z,5.50
2022-11-21T04:35:23.887Z,5.50
2022-11-21T04:38:11.826Z,5.50
2022-11-21T04:41:00.627Z,5.40
2022-11-21T04:43:48.366Z,5.50
2022-11-21T04:46:35.461Z,5.40
2022-11-21T04:49:25.809Z,5.40
2022-11-21T04:52:13.565Z,5.30
2022-11-21T04:55:00.794Z,5.30
2022-11-21T04:57:50.647Z,5.30
2022-11-21T05:00:38.260Z,5.30
2022-11-21T05:03:26.215Z,5.30
2022-11-21T05:06:13.457Z,5.30
2022-11-21T05:09:00.890Z,5.30
2022-11-21T05:12:06.364Z,5.20
2022-11-21T05:14:55.769Z,5.30
2022-11-21T05:17:44.115Z,5.30
2022-11-21T05:20:36.612Z,5.30
2022-11-21T05:23:24.837Z,5.30
2022-11-21T05:26:12.360Z,5.20
2022-11-21T05:29:00.161Z,5.30
2022-11-21T05:31:52.152Z,5.20
2022-11-21T05:34:40.208Z,5.20
2022-11-21T05:37:28.031Z,5.20
2022-11-21T05:40:15.949Z,5.20
2022-11-21T05:43:21.559Z,5.30
2022-11-21T05:46:09.699Z,5.20
2022-11-21T05:48:58.937Z,5.30
2022-11-21T05:51:46.127Z,5.30
2022-11-21T05:54:34.646Z,5.30
2022-11-21T05:57:21.903Z,5.30
2022-11-21T06:00:10.463Z,5.20
2022-11-21T06:03:22.286Z,5.30
2022-11-21T06:06:19.651Z,5.20
2022-11-21T06:09:12.507Z,5.10
2022-11-21T06:12:03.630Z,5.10
2022-11-21T06:15:01.299Z,5.10
2022-11-21T06:17:53.935Z,5.20
2022-11-21T06:20:43.756Z,5.20
2022-11-21T06:23:32.673Z,5.20
2022-11-21T06:26:24.617Z,5.10
2022-11-21T06:29:15.127Z,5.10
2022-11-21T06:32:02.807Z,5.00
2022-11-21T06:34:50.908Z,5.00
2022-11-21T06:37:37.986Z,4.90
2022-11-21T06:40:27.369Z,4.80
2022-11-21T06:43:14.755Z,4.70
2022-11-21T06:46:04.250Z,4.70
2022-11-21T06:48:51.852Z,4.60
2022-11-21T06:51:39.607Z,4.50
2022-11-21T06:54:27.422Z,4.40
2022-11-21T06:57:17.047Z,4.40
2022-11-21T07:00:05.315Z,4.30
2022-11-21T07:02:52.877Z,4.30
2022-11-21T07:05:40.387Z,4.20
2022-11-21T07:08:28.713Z,4.20
2022-11-21T07:11:25.340Z,4.20
2022-11-21T07:14:14.720Z,4.10
2022-11-21T07:17:03.076Z,4.10
2022-11-21T07:19:50.609Z,4.00
2022-11-21T07:22:38.634Z,4.00
2022-11-21T07:25:26.845Z,4.00
2022-11-21T07:28:14.497Z,3.90
2022-11-21T07:31:08.421Z,3.90
2022-11-21T07:33:56.465Z,3.90
2022-11-21T07:36:44.968Z,3.90
2022-11-21T07:39:32.446Z,3.90
2022-11-21T07:42:19.859Z,3.90
2022-11-21T07:45:07.846Z,3.80
2022-11-21T07:48:00.008Z,3.80
2022-11-21T07:50:47.587Z,3.90
2022-11-21T07:53:35.463Z,3.80
2022-11-21T07:56:26.600Z,3.80
2022-11-21T07:59:14.686Z,3.80
2022-11-21T08:02:02.057Z,3.80
2022-11-21T08:04:50.971Z,3.80
2022-11-21T08:07:39.305Z,3.90
2022-11-21T08:10:27.069Z,3.90
2022-11-21T08:13:15.276Z,3.80
2022-11-21T08:16:04.657Z,3.80
2022-11-21T08:18:53.151Z,3.90
2022-11-21T08:21:42.523Z,3.90
2022-11-21T08:24:29.814Z,3.90
2022-11-21T08:27:20.822Z,4.00
2022-11-21T08:30:11.980Z,4.00
2022-11-21T08:32:59.826Z,4.00
2022-11-21T08:35:47.395Z,4.10
2022-11-21T08:38:36.606Z,5.00
2022-11-21T08:41:41.884Z,4.10
2022-11-21T08:44:30.111Z,4.40
2022-11-21T08:47:17.875Z,4.00
2022-11-21T08:50:08.778Z,4.00
2022-11-21T08:53:00.470Z,4.10
2022-11-21T08:55:49.462Z,4.10
2022-11-21T08:58:36.647Z,4.20
2022-11-21T09:01:24.777Z,4.20
2022-11-21T09:04:14.837Z,4.30
2022-11-21T09:07:04.303Z,4.40
2022-11-21T09:09:52.061Z,4.40
2022-11-21T09:12:41.443Z,4.50
2022-11-21T09:15:46.333Z,4.60
2022-11-21T09:18:34.239Z,4.60
2022-11-21T09:21:24.579Z,4.80
2022-11-21T09:24:12.541Z,4.80
2022-11-21T09:27:00.750Z,4.90
2022-11-21T09:29:54.064Z,4.40
2022-11-21T09:32:44.969Z,5.00
2022-11-21T09:35:32.268Z,5.00
2022-11-21T09:38:24.168Z,5.00
2022-11-21T09:41:30.584Z,5.10
2022-11-21T09:44:23.785Z,5.20
2022-11-21T09:47:20.201Z,5.30
2022-11-21T09:50:08.386Z,5.30
2022-11-21T09:52:57.799Z,5.40
2022-11-21T09:55:47.319Z,5.40
2022-11-21T09:58:38.769Z,5.50
2022-11-21T10:01:28.775Z,5.50
2022-11-21T10:04:18.644Z,5.60
2022-11-21T10:07:10.641Z,5.70
2022-11-21T10:10:04.477Z,5.80
2022-11-21T10:12:58.258Z,5.80
2022-11-21T10:15:52.106Z,5.90
2022-11-21T10:18:49.644Z,6.00
2022-11-21T10:21:55.873Z,6.30
2022-11-21T10:24:50.372Z,6.50
2022-11-21T10:27:42.143Z,6.50
2022-11-21T10:30:30.009Z,6.60
2022-11-21T10:33:26.171Z,6.70
2022-11-21T10:36:17.137Z,6.80
2022-11-21T10:39:07.429Z,6.90
2022-11-21T10:42:04.000Z,6.90
2022-11-21T10:45:12.139Z,7.00
2022-11-21T10:48:02.666Z,7.10
2022-11-21T10:51:05.792Z,7.00
2022-11-21T10:54:22.002Z,7.00
2022-11-21T10:57:14.914Z,7.10
2022-11-21T11:00:04.874Z,7.00
2022-11-21T11:03:16.706Z,7.00
2022-11-21T11:06:04.252Z,7.00
2022-11-21T11:08:52.933Z,7.00
2022-11-21T11:11:40.367Z,7.00
2022-11-21T11:14:31.494Z,7.10
2022-11-21T11:17:27.159Z,7.00
2022-11-21T11:20:30.141Z,7.00
2022-11-21T11:23:18.835Z,7.10
2022-11-21T11:26:19.239Z,7.10
2022-11-21T11:29:09.620Z,7.10
2022-11-21T11:32:01.576Z,7.30
2022-11-21T11:34:55.651Z,7.40
2022-11-21T11:37:45.359Z,7.50
2022-11-21T11:40:34.646Z,7.60
2022-11-21T11:43:47.152Z,7.60
2022-11-21T11:46:55.884Z,7.60
2022-11-21T11:50:04.592Z,7.70
2022-11-21T11:52:55.576Z,8.30
2022-11-21T11:55:46.858Z,7.70
2022-11-21T11:58:39.807Z,7.80
2022-11-21T12:01:31.610Z,7.70
2022-11-21T12:04:21.077Z,7.70
2022-11-21T12:08:27.627Z,7.70
2022-11-21T12:10:28.474Z,7.80
2022-11-21T12:13:17.546Z,7.80
2022-11-21T12:16:13.063Z,7.90
2022-11-21T12:19:04.703Z,8.00
2022-11-21T12:21:52.387Z,8.10
2022-11-21T12:24:43.429Z,8.10
2022-11-21T12:27:32.547Z,8.10
2022-11-21T12:30:24.085Z,8.20
2022-11-21T12:33:16.900Z,8.20
2022-11-21T12:36:19.241Z,8.20
2022-11-21T12:39:13.721Z,8.30
2022-11-21T12:42:25.621Z,8.20
2022-11-21T12:45:27.424Z,7.90
2022-11-21T12:48:38.469Z,8.40
2022-11-21T12:51:58.792Z,8.30
2022-11-21T12:54:57.767Z,8.20
2022-11-21T12:57:51.716Z,8.20
2022-11-21T13:00:44.330Z,8.10
2022-11-21T13:03:43.668Z,8.10
2022-11-21T13:06:32.873Z,8.10
2022-11-21T13:09:21.658Z,8.20
2022-11-21T13:12:13.890Z,8.00
2022-11-21T13:15:07.358Z,8.20
2022-11-21T13:17:56.463Z,8.20
2022-11-21T13:20:48.242Z,8.30
2022-11-21T13:23:36.610Z,8.30
2022-11-21T13:26:45.163Z,8.40
2022-11-21T13:29:32.757Z,8.50
2022-11-21T13:32:40.428Z,8.50
2022-11-21T13:35:46.961Z,8.50
2022-11-21T13:38:49.878Z,8.50
2022-11-21T13:42:17.158Z,8.50
2022-11-21T13:45:26.293Z,8.40
2022-11-21T13:48:34.746Z,8.40
2022-11-21T13:51:28.900Z,8.40
2022-11-21T13:54:40.178Z,8.40
2022-11-21T13:57:40.817Z,8.30
2022-11-21T14:00:38.606Z,8.20
2022-11-21T14:03:40.495Z,8.20
2022-11-21T14:06:37.428Z,8.20
2022-11-21T14:09:26.548Z,8.10
2022-11-21T14:12:21.213Z,8.10
2022-11-21T14:15:23.985Z,8.00
2022-11-21T14:18:16.359Z,8.00
2022-11-21T14:21:05.207Z,8.00
2022-11-21T14:23:57.708Z,7.90
2022-11-21T14:26:47.299Z,7.90
2022-11-21T14:29:40.471Z,7.90
2022-11-21T14:32:29.130Z,7.90
2022-11-21T14:35:20.965Z,7.90
2022-11-21T14:38:08.273Z,7.90
2022-11-21T14:41:14.576Z,7.90
2022-11-21T14:44:07.715Z,7.90
2022-11-21T14:47:05.015Z,7.90
2022-11-21T14:49:53.479Z,7.90
2022-11-21T14:52:41.544Z,7.90
2022-11-21T14:55:31.336Z,7.90
2022-11-21T14:58:20.029Z,7.90
2022-11-21T15:01:20.292Z,7.90
2022-11-21T15:04:15.008Z,7.90
2022-11-21T15:07:02.580Z,7.90
2022-11-21T15:10:27.317Z,7.80
2022-11-21T15:13:00.420Z,7.70
2022-11-21T15:15:49.696Z,7.60
2022-11-21T15:18:41.941Z,7.60
2022-11-21T15:21:29.450Z,7.60
2022-11-21T15:24:17.723Z,7.60
2022-11-21T15:27:23.715Z,7.50
2022-11-21T15:30:32.095Z,7.50
2022-11-21T15:33:20.133Z,7.50
2022-11-21T15:36:14.804Z,7.40
2022-11-21T15:39:04.011Z,7.40
2022-11-21T15:41:51.605Z,7.40
2022-11-21T15:44:57.702Z,7.40
2022-11-21T15:47:45.306Z,7.30
2022-11-21T15:50:34.841Z,7.30
2022-11-21T15:53:24.686Z,7.20
2022-11-21T15:56:16.980Z,7.20
2022-11-21T15:59:08.935Z,7.20
2022-11-21T16:01:56.275Z,7.20
2022-11-21T16:04:43.974Z,7.10
2022-11-21T16:07:32.000Z,7.20
2022-11-21T16:10:27.443Z,7.20
2022-11-21T16:13:15.830Z,7.20
2022-11-21T16:16:04.436Z,7.20
2022-11-21T16:18:52.626Z,7.20
2022-11-21T16:21:41.114Z,7.10
2022-11-21T16:24:28.911Z,7.20
2022-11-21T16:27:18.097Z,7.20
2022-11-21T16:30:06.009Z,7.20
2022-11-21T16:32:55.608Z,7.20
2022-11-21T16:35:42.859Z,7.30
2022-11-21T16:38:31.645Z,7.20
2022-11-21T16:41:19.879Z,7.20
2022-11-21T16:44:13.099Z,7.20
2022-11-21T16:47:05.164Z,7.30
2022-11-21T16:49:56.995Z,7.20
2022-11-21T16:52:44.259Z,7.20
2022-11-21T16:55:31.795Z,7.30
2022-11-21T16:58:19.926Z,7.20
2022-11-21T17:01:12.682Z,7.20
2022-11-21T17:04:00.418Z,7.50
2022-11-21T17:06:49.100Z,7.10
2022-11-21T17:09:36.632Z,7.10
2022-11-21T17:12:24.790Z,7.10
2022-11-21T17:15:13.145Z,7.10
2022-11-21T17:18:02.625Z,7.10
2022-11-21T17:20:50.873Z,7.10
2022-11-21T17:23:40.393Z,7.10
2022-11-21T17:26:30.348Z,7.10
2022-11-21T17:29:18.038Z,7.10
2022-11-21T17:32:05.289Z,7.00
2022-11-21T17:34:54.621Z,7.00
2022-11-21T17:37:42.291Z,7.00
2022-11-21T17:40:30.908Z,7.00
2022-11-21T17:43:21.235Z,6.90
2022-11-21T17:46:11.256Z,6.90
2022-11-21T17:48:59.699Z,6.90
2022-11-21T17:51:52.454Z,6.90
2022-11-21T17:54:42.518Z,6.90
2022-11-21T17:57:30.288Z,6.90
2022-11-21T18:00:17.826Z,6.80
2022-11-21T18:03:05.370Z,6.90
2022-11-21T18:06:00.789Z,6.80
2022-11-21T18:08:49.792Z,6.80
2022-11-21T18:11:40.287Z,6.90
2022-11-21T18:14:28.376Z,6.80
2022-11-21T18:17:16.689Z,6.50
2022-11-21T18:20:04.502Z,6.80
2022-11-21T18:22:52.096Z,6.90
2022-11-21T18:25:40.954Z,6.90
2022-11-21T18:28:29.055Z,6.80
2022-11-21T18:31:17.639Z,6.80
2022-11-21T18:34:08.078Z,6.80
2022-11-21T18:36:55.592Z,6.80
2022-11-21T18:39:46.223Z,6.80
2022-11-21T18:42:36.093Z,6.90
2022-11-21T18:45:25.107Z,6.80
2022-11-21T18:48:14.423Z,6.80
2022-11-21T18:51:05.293Z,6.80
2022-11-21T18:53:53.843Z,6.90
2022-11-21T18:56:42.933Z,6.80
2022-11-21T18:59:35.778Z,4.90
2022-11-21T19:02:25.240Z,5.70
2022-11-21T19:05:17.561Z,6.80
2022-11-21T19:08:07.904Z,6.60
2022-11-21T19:10:56.273Z,6.80
2022-11-21T19:13:47.854Z,6.70
2022-11-21T19:16:39.266Z,6.80
2022-11-21T19:19:34.534Z,6.80
2022-11-21T19:22:26.588Z,6.80
2022-11-21T19:25:14.732Z,6.80
2022-11-21T19:28:04.134Z,6.80
2022-11-21T19:30:51.373Z,6.80
2022-11-21T19:33:40.055Z,6.80
2022-11-21T19:36:28.183Z,6.80
2022-11-21T19:39:17.491Z,6.80
2022-11-21T19:42:05.112Z,6.80
2022-11-21T19:44:53.040Z,6.80
2022-11-21T19:47:40.215Z,7.00
2022-11-21T19:50:29.174Z,6.80
2022-11-21T19:53:16.771Z,6.80
2022-11-21T19:56:11.607Z,6.80
2022-11-21T19:58:59.086Z,6.80
2022-11-21T20:01:51.141Z,6.80
2022-11-21T20:04:39.958Z,6.80
2022-11-21T20:07:33.538Z,6.80
2022-11-21T20:10:21.474Z,6.80
2022-11-21T20:13:09.013Z,6.80
2022-11-21T20:15:56.246Z,6.80
2022-11-21T20:18:43.485Z,6.80
2022-11-21T20:21:31.921Z,6.80
2022-11-21T20:24:24.335Z,6.80
2022-11-21T20:27:12.490Z,6.80
2022-11-21T20:29:59.863Z,6.80
2022-11-21T20:32:47.360Z,7.20
2022-11-21T20:35:35.421Z,6.80
2022-11-21T20:38:24.446Z,6.80
2022-11-21T20:41:13.942Z,6.90
2022-11-21T20:47:10.388Z,6.80
2022-11-21T20:49:57.841Z,6.80
2022-11-21T20:55:53.137Z,6.80
2022-11-21T20:58:43.770Z,6.80
2022-11-21T21:01:32.730Z,6.80
2022-11-21T21:04:21.767Z,6.80
2022-11-21T21:07:10.444Z,6.80
2022-11-21T21:09:59.555Z,6.80
2022-11-21T21:12:48.759Z,6.80
2022-11-21T21:15:38.140Z,6.80
2022-11-21T21:18:25.811Z,6.80
2022-11-21T21:21:17.169Z,6.70
2022-11-21T21:24:06.470Z,6.80
2022-11-21T21:26:54.101Z,6.80
2022-11-21T21:29:44.228Z,6.80
2022-11-21T21:32:33.092Z,6.80
2022-11-21T21:35:20.710Z,6.80
2022-11-21T21:38:09.239Z,6.80
2022-11-21T21:40:57.064Z,6.80
2022-11-21T21:43:44.745Z,6.80
2022-11-21T21:46:32.371Z,6.80
2022-11-21T21:49:24.118Z,6.80
2022-11-21T21:52:11.851Z,6.80
2022-11-21T21:54:59.320Z,6.80
2022-11-21T21:57:52.172Z,6.80
2022-11-21T22:00:42.625Z,6.80
2022-11-21T22:03:30.588Z,6.70
2022-11-21T22:06:20.556Z,6.70
2022-11-21T22:09:07.849Z,6.70
2022-11-21T22:11:55.304Z,6.80
2022-11-21T22:14:42.750Z,6.60
2022-11-21T22:17:30.046Z,6.60
2022-11-21T22:20:17.748Z,6.50
2022-11-21T22:23:06.683Z,6.50
2022-11-21T22:25:56.234Z,6.50
2022-11-21T22:28:44.048Z,6.40
2022-11-21T22:31:32.151Z,6.40
2022-11-21T22:34:20.230Z,6.30
2022-11-21T22:37:07.857Z,6.30
2022-11-21T22:39:56.489Z,4.30
2022-11-21T22:42:44.810Z,6.30
2022-11-21T22:45:35.282Z,5.80
2022-11-21T22:48:23.463Z,6.10
2022-11-21T22:51:13.414Z,6.20
2022-11-21T22:54:00.923Z,6.20
2022-11-21T22:56:49.691Z,6.20
2022-11-21T22:59:37.640Z,6.20
2022-11-21T23:02:25.278Z,6.20
2022-11-21T23:05:13.423Z,6.20
2022-11-21T23:08:00.835Z,6.20
2022-11-21T23:10:48.899Z,6.20
2022-11-21T23:13:38.384Z,6.20
2022-11-21T23:16:27.739Z,6.10
2022-11-21T23:19:15.648Z,5.70
2022-11-21T23:22:06.265Z,6.10
2022-11-21T23:24:53.711Z,6.60
2022-11-21T23:27:41.192Z,6.10
2022-11-21T23:30:30.218Z,6.10
2022-11-21T23:33:18.558Z,6.10
2022-11-21T23:36:05.865Z,6.10
2022-11-21T23:38:53.814Z,6.10
2022-11-21T23:41:42.394Z,6.00
2022-11-21T23:44:35.921Z,6.00
2022-11-21T23:47:25.225Z,5.40
2022-11-21T23:50:12.893Z,6.00
2022-11-21T23:53:00.657Z,6.00
2022-11-21T23:55:49.117Z,6.00
2022-11-21T23:58:36.724Z,6.00
